KMAN

Details ICAO KMAN
Name NAMPA MUNI
Region United States
Timezone America/Boise (UTC-7.0)
Plans Departing 12
Arriving 8
Stats Elevation 2,537 ft / 773 m (AMSL)
Location 43.581342° -116.523062°
Runways 1
Magnetic Variation 13.450° E
Sunrise 2017-12-15 15:14:04 UTC / 2017-12-15 08:14:04 Local
Sunset 2017-12-16 00:11:31 UTC / 2017-12-15 17:11:31 Local
Advertisement - Login to hide

Runways

ID Width Length Bearing (true) Bearing (mag) Surface Threshold Offset Overrun Length
11 75 ft / 23 m 4,994 ft / 1,522 m 125.74° 112.29° Asphalt 0 ft / 0 m 0 ft / 0 m
29 75 ft / 23 m 4,994 ft / 1,522 m 305.76° 292.31° Asphalt 0 ft / 0 m 0 ft / 0 m

Map

Weather


0- 5 10 15 20 25 30 35+ Temperature / ° C

Clouds and Precipitation
Forecast for 2017-12-16 06:00 UTC. Updated 34 minutes ago

Ground ~20,000 ft ~40,000 ft Winds

METAR

KMAN 160535Z AUTO 32005KT 3SM BR FEW004 BKN033 OVC070 M02/M02 A3014 RMK A01

TAF

Not found

Frequencies

Unicom 122.70 MHz CTAF/UNICOM
Approach 119.60 MHz BOISE APP/DEP
Warning: Do not use this data for real-world aviation or navigation. No guarantee of current accuracy is given.